sensor_id;sensor_type;location;lat;lon;timestamp;temperature;humidity
3850;DHT22;1940;51.052;13.678;2022-08-18T00:02:20;22.50;70.90
3850;DHT22;1940;51.052;13.678;2022-08-18T00:04:47;22.40;70.90
3850;DHT22;1940;51.052;13.678;2022-08-18T00:07:16;22.40;70.70
3850;DHT22;1940;51.052;13.678;2022-08-18T00:09:42;22.40;71.20
3850;DHT22;1940;51.052;13.678;2022-08-18T00:12:30;22.50;70.90
3850;DHT22;1940;51.052;13.678;2022-08-18T00:14:57;22.50;70.50
3850;DHT22;1940;51.052;13.678;2022-08-18T00:17:27;22.40;70.70
3850;DHT22;1940;51.052;13.678;2022-08-18T00:19:53;22.30;71.30
3850;DHT22;1940;51.052;13.678;2022-08-18T00:22:20;22.30;71.40
3850;DHT22;1940;51.052;13.678;2022-08-18T00:24:51;22.20;71.70
3850;DHT22;1940;51.052;13.678;2022-08-18T00:27:23;22.20;71.70
3850;DHT22;1940;51.052;13.678;2022-08-18T00:29:51;22.20;71.90
3850;DHT22;1940;51.052;13.678;2022-08-18T00:32:23;22.30;71.90
3850;DHT22;1940;51.052;13.678;2022-08-18T00:34:49;22.30;71.70
3850;DHT22;1940;51.052;13.678;2022-08-18T00:37:15;22.30;71.80
3850;DHT22;1940;51.052;13.678;2022-08-18T00:39:40;22.30;71.80
3850;DHT22;1940;51.052;13.678;2022-08-18T00:42:31;22.30;71.80
3850;DHT22;1940;51.052;13.678;2022-08-18T00:45:03;22.30;71.30
3850;DHT22;1940;51.052;13.678;2022-08-18T00:47:29;22.10;72.50
3850;DHT22;1940;51.052;13.678;2022-08-18T00:49:56;22.10;72.10
3850;DHT22;1940;51.052;13.678;2022-08-18T00:52:22;22.00;72.30
3850;DHT22;1940;51.052;13.678;2022-08-18T00:54:49;21.90;72.50
3850;DHT22;1940;51.052;13.678;2022-08-18T00:57:17;21.80;73.10
3850;DHT22;1940;51.052;13.678;2022-08-18T00:59:51;21.70;73.20
3850;DHT22;1940;51.052;13.678;2022-08-18T01:02:25;21.70;73.20
3850;DHT22;1940;51.052;13.678;2022-08-18T01:04:55;21.80;73.20
3850;DHT22;1940;51.052;13.678;2022-08-18T01:07:39;21.70;73.00
3850;DHT22;1940;51.052;13.678;2022-08-18T01:10:09;21.60;73.00
3850;DHT22;1940;51.052;13.678;2022-08-18T01:12:40;21.60;73.70
3850;DHT22;1940;51.052;13.678;2022-08-18T01:15:06;21.70;73.80
3850;DHT22;1940;51.052;13.678;2022-08-18T01:17:32;21.80;73.60
3850;DHT22;1940;51.052;13.678;2022-08-18T01:20:23;21.80;73.70
3850;DHT22;1940;51.052;13.678;2022-08-18T01:23:13;21.60;73.90
3850;DHT22;1940;51.052;13.678;2022-08-18T01:25:40;21.60;73.90
3850;DHT22;1940;51.052;13.678;2022-08-18T01:28:43;21.60;73.50
3850;DHT22;1940;51.052;13.678;2022-08-18T01:31:11;21.50;73.70
3850;DHT22;1940;51.052;13.678;2022-08-18T01:33:41;21.50;74.00
3850;DHT22;1940;51.052;13.678;2022-08-18T01:36:18;21.50;74.10
3850;DHT22;1940;51.052;13.678;2022-08-18T01:38:49;21.50;74.00
3850;DHT22;1940;51.052;13.678;2022-08-18T01:41:16;21.50;74.20
3850;DHT22;1940;51.052;13.678;2022-08-18T01:43:43;21.50;74.20
3850;DHT22;1940;51.052;13.678;2022-08-18T01:46:09;21.50;74.40
3850;DHT22;1940;51.052;13.678;2022-08-18T01:48:36;21.60;74.30
3850;DHT22;1940;51.052;13.678;2022-08-18T01:51:06;21.60;74.20
3850;DHT22;1940;51.052;13.678;2022-08-18T01:53:33;21.60;74.10
3850;DHT22;1940;51.052;13.678;2022-08-18T01:55:58;21.60;74.00
3850;DHT22;1940;51.052;13.678;2022-08-18T01:58:24;21.60;74.20
3850;DHT22;1940;51.052;13.678;2022-08-18T02:00:56;21.50;74.30
3850;DHT22;1940;51.052;13.678;2022-08-18T02:03:25;21.50;74.30
3850;DHT22;1940;51.052;13.678;2022-08-18T02:05:57;21.50;74.30
3850;DHT22;1940;51.052;13.678;2022-08-18T02:08:24;21.50;74.30
3850;DHT22;1940;51.052;13.678;2022-08-18T02:10:49;21.40;74.40
3850;DHT22;1940;51.052;13.678;2022-08-18T02:13:15;21.40;74.60
3850;DHT22;1940;51.052;13.678;2022-08-18T02:15:40;21.40;74.30
3850;DHT22;1940;51.052;13.678;2022-08-18T02:18:13;21.40;74.30
3850;DHT22;1940;51.052;13.678;2022-08-18T02:20:38;21.40;74.30
3850;DHT22;1940;51.052;13.678;2022-08-18T02:23:03;21.40;74.40
3850;DHT22;1940;51.052;13.678;2022-08-18T02:25:29;21.40;74.30
3850;DHT22;1940;51.052;13.678;2022-08-18T02:27:55;21.40;74.40
3850;DHT22;1940;51.052;13.678;2022-08-18T02:30:21;21.50;74.40
3850;DHT22;1940;51.052;13.678;2022-08-18T02:32:47;21.50;74.60
3850;DHT22;1940;51.052;13.678;2022-08-18T02:35:12;21.50;74.50
3850;DHT22;1940;51.052;13.678;2022-08-18T02:37:41;21.40;74.60
3850;DHT22;1940;51.052;13.678;2022-08-18T02:40:08;21.40;74.40
3850;DHT22;1940;51.052;13.678;2022-08-18T02:42:34;21.40;74.40
3850;DHT22;1940;51.052;13.678;2022-08-18T02:44:59;21.40;74.40
3850;DHT22;1940;51.052;13.678;2022-08-18T02:47:25;21.40;74.50
3850;DHT22;1940;51.052;13.678;2022-08-18T02:49:50;21.30;74.40
3850;DHT22;1940;51.052;13.678;2022-08-18T02:52:16;21.30;74.50
3850;DHT22;1940;51.052;13.678;2022-08-18T02:54:42;21.30;74.60
3850;DHT22;1940;51.052;13.678;2022-08-18T02:57:09;21.30;74.90
3850;DHT22;1940;51.052;13.678;2022-08-18T02:59:35;21.20;75.10
3850;DHT22;1940;51.052;13.678;2022-08-18T03:02:04;21.10;75.30
3850;DHT22;1940;51.052;13.678;2022-08-18T03:04:31;21.10;75.10
3850;DHT22;1940;51.052;13.678;2022-08-18T03:06:59;21.20;74.90
3850;DHT22;1940;51.052;13.678;2022-08-18T03:09:25;21.10;74.70
3850;DHT22;1940;51.052;13.678;2022-08-18T03:11:51;21.10;74.70
3850;DHT22;1940;51.052;13.678;2022-08-18T03:14:17;21.10;74.80
3850;DHT22;1940;51.052;13.678;2022-08-18T03:16:45;21.10;74.70
3850;DHT22;1940;51.052;13.678;2022-08-18T03:19:12;21.10;74.80
3850;DHT22;1940;51.052;13.678;2022-08-18T03:21:42;21.10;74.60
3850;DHT22;1940;51.052;13.678;2022-08-18T03:24:09;21.10;74.60
3850;DHT22;1940;51.052;13.678;2022-08-18T03:26:35;21.10;74.90
3850;DHT22;1940;51.052;13.678;2022-08-18T03:29:03;21.10;75.00
3850;DHT22;1940;51.052;13.678;2022-08-18T03:31:29;21.10;75.70
3850;DHT22;1940;51.052;13.678;2022-08-18T03:33:57;21.10;76.10
3850;DHT22;1940;51.052;13.678;2022-08-18T03:36:26;21.10;76.10
3850;DHT22;1940;51.052;13.678;2022-08-18T03:38:53;21.00;76.10
3850;DHT22;1940;51.052;13.678;2022-08-18T03:41:22;21.10;75.50
3850;DHT22;1940;51.052;13.678;2022-08-18T03:43:49;21.10;75.70
3850;DHT22;1940;51.052;13.678;2022-08-18T03:46:15;21.00;75.60
3850;DHT22;1940;51.052;13.678;2022-08-18T03:48:42;21.00;75.80
3850;DHT22;1940;51.052;13.678;2022-08-18T03:51:17;21.00;76.10
3850;DHT22;1940;51.052;13.678;2022-08-18T03:53:43;21.10;76.20
3850;DHT22;1940;51.052;13.678;2022-08-18T03:56:16;21.00;76.10
3850;DHT22;1940;51.052;13.678;2022-08-18T03:58:44;21.00;76.10
3850;DHT22;1940;51.052;13.678;2022-08-18T04:01:11;20.90;76.40
3850;DHT22;1940;51.052;13.678;2022-08-18T04:03:43;20.90;76.50
3850;DHT22;1940;51.052;13.678;2022-08-18T04:06:25;20.90;76.40
3850;DHT22;1940;51.052;13.678;2022-08-18T04:08:53;20.90;76.20
3850;DHT22;1940;51.052;13.678;2022-08-18T04:11:19;20.90;76.20
3850;DHT22;1940;51.052;13.678;2022-08-18T04:13:45;20.90;76.50
3850;DHT22;1940;51.052;13.678;2022-08-18T04:16:11;20.90;76.70
3850;DHT22;1940;51.052;13.678;2022-08-18T04:18:36;21.00;76.70
3850;DHT22;1940;51.052;13.678;2022-08-18T04:21:04;21.00;76.60
3850;DHT22;1940;51.052;13.678;2022-08-18T04:23:36;21.00;76.50
3850;DHT22;1940;51.052;13.678;2022-08-18T04:26:02;21.00;76.20
3850;DHT22;1940;51.052;13.678;2022-08-18T04:28:28;21.00;76.30
3850;DHT22;1940;51.052;13.678;2022-08-18T04:30:54;21.10;76.40
3850;DHT22;1940;51.052;13.678;2022-08-18T04:33:24;21.10;76.40
3850;DHT22;1940;51.052;13.678;2022-08-18T04:35:50;21.10;76.30
3850;DHT22;1940;51.052;13.678;2022-08-18T04:38:15;21.10;76.50
3850;DHT22;1940;51.052;13.678;2022-08-18T04:40:41;21.10;76.60
3850;DHT22;1940;51.052;13.678;2022-08-18T04:43:07;21.00;76.70
3850;DHT22;1940;51.052;13.678;2022-08-18T04:45:43;21.00;76.50
3850;DHT22;1940;51.052;13.678;2022-08-18T04:48:10;21.10;76.40
3850;DHT22;1940;51.052;13.678;2022-08-18T04:50:36;21.20;76.30
3850;DHT22;1940;51.052;13.678;2022-08-18T04:53:02;21.30;76.10
3850;DHT22;1940;51.052;13.678;2022-08-18T04:55:48;21.40;76.10
3850;DHT22;1940;51.052;13.678;2022-08-18T04:58:14;21.80;75.50
3850;DHT22;1940;51.052;13.678;2022-08-18T05:00:40;22.50;74.10
3850;DHT22;1940;51.052;13.678;2022-08-18T05:03:07;23.20;72.10
3850;DHT22;1940;51.052;13.678;2022-08-18T05:05:33;24.00;69.50
3850;DHT22;1940;51.052;13.678;2022-08-18T05:07:58;24.70;67.50
3850;DHT22;1940;51.052;13.678;2022-08-18T05:10:24;25.40;65.40
3850;DHT22;1940;51.052;13.678;2022-08-18T05:12:49;25.90;63.80
3850;DHT22;1940;51.052;13.678;2022-08-18T05:15:15;26.40;62.80
3850;DHT22;1940;51.052;13.678;2022-08-18T05:17:43;26.60;62.10
3850;DHT22;1940;51.052;13.678;2022-08-18T05:20:09;26.50;62.20
3850;DHT22;1940;51.052;13.678;2022-08-18T05:22:41;26.20;63.00
3850;DHT22;1940;51.052;13.678;2022-08-18T05:25:10;26.20;63.70
3850;DHT22;1940;51.052;13.678;2022-08-18T05:27:40;26.00;64.30
3850;DHT22;1940;51.052;13.678;2022-08-18T05:30:08;25.70;63.90
3850;DHT22;1940;51.052;13.678;2022-08-18T05:32:38;25.30;64.70
3850;DHT22;1940;51.052;13.678;2022-08-18T05:35:12;25.10;65.20
3850;DHT22;1940;51.052;13.678;2022-08-18T05:37:50;25.00;65.50
3850;DHT22;1940;51.052;13.678;2022-08-18T05:40:20;24.90;66.10
3850;DHT22;1940;51.052;13.678;2022-08-18T05:42:47;24.90;66.40
3850;DHT22;1940;51.052;13.678;2022-08-18T05:45:16;24.90;66.50
3850;DHT22;1940;51.052;13.678;2022-08-18T05:47:41;24.90;66.40
3850;DHT22;1940;51.052;13.678;2022-08-18T05:50:12;25.00;66.10
3850;DHT22;1940;51.052;13.678;2022-08-18T05:53:05;25.30;65.70
3850;DHT22;1940;51.052;13.678;2022-08-18T05:55:39;25.80;65.00
3850;DHT22;1940;51.052;13.678;2022-08-18T05:58:29;26.70;63.00
3850;DHT22;1940;51.052;13.678;2022-08-18T06:01:00;28.00;60.20
3850;DHT22;1940;51.052;13.678;2022-08-18T06:03:40;29.00;56.70
3850;DHT22;1940;51.052;13.678;2022-08-18T06:06:15;29.70;56.60
3850;DHT22;1940;51.052;13.678;2022-08-18T06:08:47;30.20;54.90
3850;DHT22;1940;51.052;13.678;2022-08-18T06:11:14;30.80;53.10
3850;DHT22;1940;51.052;13.678;2022-08-18T06:13:42;31.40;52.30
3850;DHT22;1940;51.052;13.678;2022-08-18T06:19:23;32.20;50.30
3850;DHT22;1940;51.052;13.678;2022-08-18T06:24:37;32.30;50.50
3850;DHT22;1940;51.052;13.678;2022-08-18T06:27:27;32.70;49.80
3850;DHT22;1940;51.052;13.678;2022-08-18T06:30:11;33.00;49.40
3850;DHT22;1940;51.052;13.678;2022-08-18T06:33:22;33.20;49.30
3850;DHT22;1940;51.052;13.678;2022-08-18T06:36:05;32.90;49.90
3850;DHT22;1940;51.052;13.678;2022-08-18T06:38:50;32.60;50.10
3850;DHT22;1940;51.052;13.678;2022-08-18T06:41:41;32.70;50.40
3850;DHT22;1940;51.052;13.678;2022-08-18T06:44:11;32.10;50.70
3850;DHT22;1940;51.052;13.678;2022-08-18T06:46:45;32.00;51.20
3850;DHT22;1940;51.052;13.678;2022-08-18T06:49:20;32.10;51.00
3850;DHT22;1940;51.052;13.678;2022-08-18T06:51:47;32.30;50.60
3850;DHT22;1940;51.052;13.678;2022-08-18T06:56:49;32.70;49.80
3850;DHT22;1940;51.052;13.678;2022-08-18T06:59:28;32.70;49.90
3850;DHT22;1940;51.052;13.678;2022-08-18T07:02:17;33.10;49.10
3850;DHT22;1940;51.052;13.678;2022-08-18T07:07:31;34.70;45.90
3850;DHT22;1940;51.052;13.678;2022-08-18T07:09:58;34.90;46.00
3850;DHT22;1940;51.052;13.678;2022-08-18T07:12:26;35.00;45.70
3850;DHT22;1940;51.052;13.678;2022-08-18T07:14:58;35.20;45.30
3850;DHT22;1940;51.052;13.678;2022-08-18T07:17:28;35.30;44.90
3850;DHT22;1940;51.052;13.678;2022-08-18T07:20:04;35.00;45.60
3850;DHT22;1940;51.052;13.678;2022-08-18T07:22:31;34.30;46.10
3850;DHT22;1940;51.052;13.678;2022-08-18T07:25:00;33.80;47.00
3850;DHT22;1940;51.052;13.678;2022-08-18T07:27:44;32.90;48.70
3850;DHT22;1940;51.052;13.678;2022-08-18T07:30:34;32.40;49.40
3850;DHT22;1940;51.052;13.678;2022-08-18T07:33:15;32.00;50.20
3850;DHT22;1940;51.052;13.678;2022-08-18T07:35:53;31.70;51.10
3850;DHT22;1940;51.052;13.678;2022-08-18T07:38:30;31.50;51.70
3850;DHT22;1940;51.052;13.678;2022-08-18T07:41:02;31.40;51.70
3850;DHT22;1940;51.052;13.678;2022-08-18T07:43:59;30.90;52.60
3850;DHT22;1940;51.052;13.678;2022-08-18T07:46:44;30.70;52.90
3850;DHT22;1940;51.052;13.678;2022-08-18T07:49:18;30.70;52.70
3850;DHT22;1940;51.052;13.678;2022-08-18T07:51:52;30.40;52.60
3850;DHT22;1940;51.052;13.678;2022-08-18T07:54:38;30.40;52.60
3850;DHT22;1940;51.052;13.678;2022-08-18T07:57:13;30.50;52.20
3850;DHT22;1940;51.052;13.678;2022-08-18T08:00:07;30.50;51.90
3850;DHT22;1940;51.052;13.678;2022-08-18T08:03:07;30.30;53.00
3850;DHT22;1940;51.052;13.678;2022-08-18T08:05:45;30.40;52.60
3850;DHT22;1940;51.052;13.678;2022-08-18T08:13:34;30.20;53.00
3850;DHT22;1940;51.052;13.678;2022-08-18T08:16:03;30.20;53.20
3850;DHT22;1940;51.052;13.678;2022-08-18T08:18:49;30.20;53.40
3850;DHT22;1940;51.052;13.678;2022-08-18T08:21:19;30.30;53.30
3850;DHT22;1940;51.052;13.678;2022-08-18T08:24:35;30.40;54.00
3850;DHT22;1940;51.052;13.678;2022-08-18T08:27:06;30.40;54.10
3850;DHT22;1940;51.052;13.678;2022-08-18T08:29:39;30.50;52.90
3850;DHT22;1940;51.052;13.678;2022-08-18T08:32:10;30.70;52.70
3850;DHT22;1940;51.052;13.678;2022-08-18T08:34:48;30.90;52.60
3850;DHT22;1940;51.052;13.678;2022-08-18T08:37:28;31.10;52.70
3850;DHT22;1940;51.052;13.678;2022-08-18T08:40:00;31.30;52.50
3850;DHT22;1940;51.052;13.678;2022-08-18T08:42:44;31.60;51.70
3850;DHT22;1940;51.052;13.678;2022-08-18T08:45:20;32.60;50.20
3850;DHT22;1940;51.052;13.678;2022-08-18T08:50:29;34.50;47.80
3850;DHT22;1940;51.052;13.678;2022-08-18T08:53:06;35.80;45.70
3850;DHT22;1940;51.052;13.678;2022-08-18T08:55:43;35.50;45.30
3850;DHT22;1940;51.052;13.678;2022-08-18T08:58:23;36.50;44.30
3850;DHT22;1940;51.052;13.678;2022-08-18T09:00:51;37.80;42.30
3850;DHT22;1940;51.052;13.678;2022-08-18T09:03:44;39.00;40.90
3850;DHT22;1940;51.052;13.678;2022-08-18T09:06:40;40.10;39.90
3850;DHT22;1940;51.052;13.678;2022-08-18T09:09:18;39.80;39.90
3850;DHT22;1940;51.052;13.678;2022-08-18T09:23:21;37.00;43.30
3850;DHT22;1940;51.052;13.678;2022-08-18T09:25:53;37.50;42.90
3850;DHT22;1940;51.052;13.678;2022-08-18T09:28:51;38.10;42.70
3850;DHT22;1940;51.052;13.678;2022-08-18T09:31:22;37.50;43.00
3850;DHT22;1940;51.052;13.678;2022-08-18T09:36:43;36.60;44.40
3850;DHT22;1940;51.052;13.678;2022-08-18T09:39:35;35.70;45.60
3850;DHT22;1940;51.052;13.678;2022-08-18T09:50:53;33.00;47.80
3850;DHT22;1940;51.052;13.678;2022-08-18T09:53:53;32.50;49.10
3850;DHT22;1940;51.052;13.678;2022-08-18T10:02:01;31.70;51.00
3850;DHT22;1940;51.052;13.678;2022-08-18T10:04:35;31.40;51.50
3850;DHT22;1940;51.052;13.678;2022-08-18T10:07:28;31.10;52.00
3850;DHT22;1940;51.052;13.678;2022-08-18T10:21:24;31.20;52.70
3850;DHT22;1940;51.052;13.678;2022-08-18T10:31:21;31.40;52.70
3850;DHT22;1940;51.052;13.678;2022-08-18T10:36:47;31.00;53.60
3850;DHT22;1940;51.052;13.678;2022-08-18T10:39:19;30.90;53.90
3850;DHT22;1940;51.052;13.678;2022-08-18T10:41:55;31.00;53.50
3850;DHT22;1940;51.052;13.678;2022-08-18T10:44:22;30.90;54.00
3850;DHT22;1940;51.052;13.678;2022-08-18T10:46:49;30.70;54.40
3850;DHT22;1940;51.052;13.678;2022-08-18T10:49:21;30.80;54.70
3850;DHT22;1940;51.052;13.678;2022-08-18T10:58:11;30.90;53.30
3850;DHT22;1940;51.052;13.678;2022-08-18T11:06:23;30.90;53.10
3850;DHT22;1940;51.052;13.678;2022-08-18T11:08:53;31.00;53.10
3850;DHT22;1940;51.052;13.678;2022-08-18T11:11:22;31.00;53.40
3850;DHT22;1940;51.052;13.678;2022-08-18T11:16:51;30.70;53.70
3850;DHT22;1940;51.052;13.678;2022-08-18T11:19:19;30.50;54.00
3850;DHT22;1940;51.052;13.678;2022-08-18T11:21:48;30.30;54.30
3850;DHT22;1940;51.052;13.678;2022-08-18T11:24:19;30.30;54.70
3850;DHT22;1940;51.052;13.678;2022-08-18T11:26:49;30.30;55.10
3850;DHT22;1940;51.052;13.678;2022-08-18T11:29:38;30.20;55.70
3850;DHT22;1940;51.052;13.678;2022-08-18T11:34:52;30.10;56.10
3850;DHT22;1940;51.052;13.678;2022-08-18T11:37:35;29.90;56.50
3850;DHT22;1940;51.052;13.678;2022-08-18T11:40:05;30.10;56.60
3850;DHT22;1940;51.052;13.678;2022-08-18T11:42:39;30.00;56.40
3850;DHT22;1940;51.052;13.678;2022-08-18T11:45:17;29.70;56.20
3850;DHT22;1940;51.052;13.678;2022-08-18T12:04:06;29.30;57.60
3850;DHT22;1940;51.052;13.678;2022-08-18T12:06:33;29.20;57.90
3850;DHT22;1940;51.052;13.678;2022-08-18T12:09:07;29.00;58.50
3850;DHT22;1940;51.052;13.678;2022-08-18T12:14:20;28.70;59.00
3850;DHT22;1940;51.052;13.678;2022-08-18T12:16:46;28.60;59.30
3850;DHT22;1940;51.052;13.678;2022-08-18T12:19:13;28.50;59.30
3850;DHT22;1940;51.052;13.678;2022-08-18T12:21:50;28.60;59.50
3850;DHT22;1940;51.052;13.678;2022-08-18T12:24:42;28.70;59.50
3850;DHT22;1940;51.052;13.678;2022-08-18T12:27:12;28.80;59.30
3850;DHT22;1940;51.052;13.678;2022-08-18T12:29:39;28.80;59.50
3850;DHT22;1940;51.052;13.678;2022-08-18T12:32:05;29.00;59.30
3850;DHT22;1940;51.052;13.678;2022-08-18T12:34:31;28.90;59.40
3850;DHT22;1940;51.052;13.678;2022-08-18T12:36:58;29.10;59.30
3850;DHT22;1940;51.052;13.678;2022-08-18T12:39:28;29.30;58.70
3850;DHT22;1940;51.052;13.678;2022-08-18T12:41:55;29.20;58.70
3850;DHT22;1940;51.052;13.678;2022-08-18T12:44:21;29.30;58.80
3850;DHT22;1940;51.052;13.678;2022-08-18T12:46:47;29.40;58.60
3850;DHT22;1940;51.052;13.678;2022-08-18T12:49:19;29.50;58.20
3850;DHT22;1940;51.052;13.678;2022-08-18T12:51:46;29.70;58.20
3850;DHT22;1940;51.052;13.678;2022-08-18T12:54:11;29.70;58.20
3850;DHT22;1940;51.052;13.678;2022-08-18T12:56:39;29.90;57.90
3850;DHT22;1940;51.052;13.678;2022-08-18T12:59:07;29.80;57.50
3850;DHT22;1940;51.052;13.678;2022-08-18T13:01:37;29.70;57.10
3850;DHT22;1940;51.052;13.678;2022-08-18T13:04:03;29.60;57.20
3850;DHT22;1940;51.052;13.678;2022-08-18T13:06:30;29.50;57.60
3850;DHT22;1940;51.052;13.678;2022-08-18T13:08:57;29.60;57.60
3850;DHT22;1940;51.052;13.678;2022-08-18T13:11:23;29.70;57.70
3850;DHT22;1940;51.052;13.678;2022-08-18T13:17:25;29.70;57.70
3850;DHT22;1940;51.052;13.678;2022-08-18T13:23:13;30.00;57.70
3850;DHT22;1940;51.052;13.678;2022-08-18T13:25:39;30.20;57.70
3850;DHT22;1940;51.052;13.678;2022-08-18T13:28:06;30.10;57.40
3850;DHT22;1940;51.052;13.678;2022-08-18T13:30:32;29.90;57.50
3850;DHT22;1940;51.052;13.678;2022-08-18T13:33:02;29.90;57.60
3850;DHT22;1940;51.052;13.678;2022-08-18T13:35:29;30.10;57.50
3850;DHT22;1940;51.052;13.678;2022-08-18T13:37:54;30.20;57.70
3850;DHT22;1940;51.052;13.678;2022-08-18T13:40:21;30.20;57.80
3850;DHT22;1940;51.052;13.678;2022-08-18T13:42:47;30.20;57.80
3850;DHT22;1940;51.052;13.678;2022-08-18T13:45:20;30.30;57.90
3850;DHT22;1940;51.052;13.678;2022-08-18T13:47:47;30.40;57.50
3850;DHT22;1940;51.052;13.678;2022-08-18T13:50:14;30.70;57.40
3850;DHT22;1940;51.052;13.678;2022-08-18T13:52:40;30.90;57.50
3850;DHT22;1940;51.052;13.678;2022-08-18T13:55:15;30.70;57.40
3850;DHT22;1940;51.052;13.678;2022-08-18T13:57:41;30.70;57.80
3850;DHT22;1940;51.052;13.678;2022-08-18T14:00:17;30.70;57.60
3850;DHT22;1940;51.052;13.678;2022-08-18T14:02:47;30.80;57.50
3850;DHT22;1940;51.052;13.678;2022-08-18T14:05:14;30.90;57.40
3850;DHT22;1940;51.052;13.678;2022-08-18T14:07:40;30.90;57.30
3850;DHT22;1940;51.052;13.678;2022-08-18T14:10:07;30.70;57.70
3850;DHT22;1940;51.052;13.678;2022-08-18T14:12:34;30.30;57.80
3850;DHT22;1940;51.052;13.678;2022-08-18T14:15:03;30.40;58.20
3850;DHT22;1940;51.052;13.678;2022-08-18T14:17:31;30.30;58.00
3850;DHT22;1940;51.052;13.678;2022-08-18T14:19:57;29.90;58.50
3850;DHT22;1940;51.052;13.678;2022-08-18T14:22:41;29.70;59.00
3850;DHT22;1940;51.052;13.678;2022-08-18T14:25:25;29.70;59.10
3850;DHT22;1940;51.052;13.678;2022-08-18T14:28:09;29.60;59.60
3850;DHT22;1940;51.052;13.678;2022-08-18T14:30:36;29.50;59.90
3850;DHT22;1940;51.052;13.678;2022-08-18T14:33:05;29.30;60.20
3850;DHT22;1940;51.052;13.678;2022-08-18T14:35:31;29.30;60.70
3850;DHT22;1940;51.052;13.678;2022-08-18T14:37:56;29.30;61.10
3850;DHT22;1940;51.052;13.678;2022-08-18T14:40:22;29.40;60.80
3850;DHT22;1940;51.052;13.678;2022-08-18T14:42:48;29.50;60.50
3850;DHT22;1940;51.052;13.678;2022-08-18T14:45:13;29.40;61.20
3850;DHT22;1940;51.052;13.678;2022-08-18T14:47:39;29.20;61.10
3850;DHT22;1940;51.052;13.678;2022-08-18T14:50:07;29.20;61.50
3850;DHT22;1940;51.052;13.678;2022-08-18T14:52:37;28.90;61.70
3850;DHT22;1940;51.052;13.678;2022-08-18T14:55:03;28.90;61.90
3850;DHT22;1940;51.052;13.678;2022-08-18T14:57:29;29.00;61.60
3850;DHT22;1940;51.052;13.678;2022-08-18T14:59:55;28.90;62.30
3850;DHT22;1940;51.052;13.678;2022-08-18T15:02:20;29.00;62.20
3850;DHT22;1940;51.052;13.678;2022-08-18T15:04:46;29.10;62.10
3850;DHT22;1940;51.052;13.678;2022-08-18T15:07:11;29.00;62.10
3850;DHT22;1940;51.052;13.678;2022-08-18T15:09:37;28.90;62.50
3850;DHT22;1940;51.052;13.678;2022-08-18T15:12:02;29.00;62.20
3850;DHT22;1940;51.052;13.678;2022-08-18T15:14:30;28.90;62.20
3850;DHT22;1940;51.052;13.678;2022-08-18T15:16:57;28.70;62.70
3850;DHT22;1940;51.052;13.678;2022-08-18T15:19:23;28.70;62.70
3850;DHT22;1940;51.052;13.678;2022-08-18T15:21:48;28.70;62.70
3850;DHT22;1940;51.052;13.678;2022-08-18T15:24:33;28.60;63.00
3850;DHT22;1940;51.052;13.678;2022-08-18T15:27:17;28.50;63.10
3850;DHT22;1940;51.052;13.678;2022-08-18T15:29:42;28.60;63.30
3850;DHT22;1940;51.052;13.678;2022-08-18T15:32:08;28.70;63.30
3850;DHT22;1940;51.052;13.678;2022-08-18T15:34:34;28.80;62.70
3850;DHT22;1940;51.052;13.678;2022-08-18T15:37:00;28.90;62.80
3850;DHT22;1940;51.052;13.678;2022-08-18T15:39:26;28.70;63.00
3850;DHT22;1940;51.052;13.678;2022-08-18T15:41:51;28.70;63.10
3850;DHT22;1940;51.052;13.678;2022-08-18T15:44:20;28.80;63.00
3850;DHT22;1940;51.052;13.678;2022-08-18T15:46:46;28.80;62.80
3850;DHT22;1940;51.052;13.678;2022-08-18T15:49:15;28.70;62.80
3850;DHT22;1940;51.052;13.678;2022-08-18T15:51:41;28.60;63.00
3850;DHT22;1940;51.052;13.678;2022-08-18T15:54:08;28.70;62.80
3850;DHT22;1940;51.052;13.678;2022-08-18T15:56:34;28.70;62.70
3850;DHT22;1940;51.052;13.678;2022-08-18T15:59:00;28.70;62.80
3850;DHT22;1940;51.052;13.678;2022-08-18T16:01:28;28.80;62.40
3850;DHT22;1940;51.052;13.678;2022-08-18T16:03:54;28.70;62.80
3850;DHT22;1940;51.052;13.678;2022-08-18T16:06:23;28.50;63.20
3850;DHT22;1940;51.052;13.678;2022-08-18T16:08:50;28.60;63.50
3850;DHT22;1940;51.052;13.678;2022-08-18T16:11:16;28.50;63.10
3850;DHT22;1940;51.052;13.678;2022-08-18T16:13:43;28.50;63.30
3850;DHT22;1940;51.052;13.678;2022-08-18T16:16:17;28.50;63.20
3850;DHT22;1940;51.052;13.678;2022-08-18T16:18:44;28.50;63.40
3850;DHT22;1940;51.052;13.678;2022-08-18T16:21:12;28.60;63.30
3850;DHT22;1940;51.052;13.678;2022-08-18T16:23:41;28.50;63.40
3850;DHT22;1940;51.052;13.678;2022-08-18T16:26:07;28.30;63.70
3850;DHT22;1940;51.052;13.678;2022-08-18T16:28:33;28.20;64.00
3850;DHT22;1940;51.052;13.678;2022-08-18T16:30:59;28.40;63.90
3850;DHT22;1940;51.052;13.678;2022-08-18T16:33:25;28.40;64.10
3850;DHT22;1940;51.052;13.678;2022-08-18T16:35:51;28.40;64.00
3850;DHT22;1940;51.052;13.678;2022-08-18T16:38:18;28.40;63.80
3850;DHT22;1940;51.052;13.678;2022-08-18T16:40:44;28.40;63.70
3850;DHT22;1940;51.052;13.678;2022-08-18T16:43:09;28.40;63.80
3850;DHT22;1940;51.052;13.678;2022-08-18T16:45:37;28.40;63.80
3850;DHT22;1940;51.052;13.678;2022-08-18T16:48:04;28.30;64.00
3850;DHT22;1940;51.052;13.678;2022-08-18T16:50:32;28.20;64.50
3850;DHT22;1940;51.052;13.678;2022-08-18T16:52:58;28.20;64.40
3850;DHT22;1940;51.052;13.678;2022-08-18T16:55:24;28.10;64.50
3850;DHT22;1940;51.052;13.678;2022-08-18T16:57:49;28.10;64.50
3850;DHT22;1940;51.052;13.678;2022-08-18T17:00:34;28.20;64.50
3850;DHT22;1940;51.052;13.678;2022-08-18T17:03:18;28.20;64.40
3850;DHT22;1940;51.052;13.678;2022-08-18T17:06:08;28.20;64.50
3850;DHT22;1940;51.052;13.678;2022-08-18T17:08:36;28.20;64.40
3850;DHT22;1940;51.052;13.678;2022-08-18T17:11:04;28.20;64.60
3850;DHT22;1940;51.052;13.678;2022-08-18T17:13:30;28.00;64.80
3850;DHT22;1940;51.052;13.678;2022-08-18T17:15:56;27.90;65.00
3850;DHT22;1940;51.052;13.678;2022-08-18T17:18:22;27.80;65.30
3850;DHT22;1940;51.052;13.678;2022-08-18T17:20:49;27.70;65.40
3850;DHT22;1940;51.052;13.678;2022-08-18T17:23:14;27.80;65.60
3850;DHT22;1940;51.052;13.678;2022-08-18T17:25:41;27.80;65.60
3850;DHT22;1940;51.052;13.678;2022-08-18T17:28:07;27.80;65.30
3850;DHT22;1940;51.052;13.678;2022-08-18T17:30:36;27.80;65.50
3850;DHT22;1940;51.052;13.678;2022-08-18T17:33:12;27.80;65.50
3850;DHT22;1940;51.052;13.678;2022-08-18T17:35:42;27.70;65.80
3850;DHT22;1940;51.052;13.678;2022-08-18T17:38:25;27.60;65.80
3850;DHT22;1940;51.052;13.678;2022-08-18T17:40:59;27.60;65.80
3850;DHT22;1940;51.052;13.678;2022-08-18T17:43:29;27.60;66.10
3850;DHT22;1940;51.052;13.678;2022-08-18T17:46:24;27.50;66.20
3850;DHT22;1940;51.052;13.678;2022-08-18T17:48:59;27.50;66.10
3850;DHT22;1940;51.052;13.678;2022-08-18T17:51:46;27.40;66.30
3850;DHT22;1940;51.052;13.678;2022-08-18T17:54:30;27.40;66.40
3850;DHT22;1940;51.052;13.678;2022-08-18T17:57:12;27.40;66.40
3850;DHT22;1940;51.052;13.678;2022-08-18T17:59:52;27.30;66.50
3850;DHT22;1940;51.052;13.678;2022-08-18T18:02:27;27.30;66.60
3850;DHT22;1940;51.052;13.678;2022-08-18T18:04:53;27.20;66.70